createdAt,value
2018-09-15T00:00:23.090Z,29.87
2018-09-15T00:02:56.593Z,24.00
2018-09-15T00:05:32.518Z,28.33
2018-09-15T00:08:06.012Z,25.47
2018-09-15T00:10:42.199Z,32.87
2018-09-15T00:13:16.557Z,28.37
2018-09-15T00:15:50.204Z,26.40
2018-09-15T00:18:21.839Z,28.20
2018-09-15T00:20:53.822Z,26.50
2018-09-15T00:23:25.517Z,30.03
2018-09-15T00:25:57.211Z,23.20
2018-09-15T00:28:29.012Z,28.77
2018-09-15T00:30:56.913Z,26.23
2018-09-15T00:33:28.016Z,28.50
2018-09-15T00:36:03.515Z,26.43
2018-09-15T00:38:35.221Z,25.73
2018-09-15T00:41:09.329Z,25.73
2018-09-15T00:43:41.952Z,25.50
2018-09-15T00:46:23.648Z,26.73
2018-09-15T00:48:53.822Z,24.63
2018-09-15T00:51:24.249Z,30.30
2018-09-15T00:53:55.389Z,25.63
2018-09-15T00:56:27.122Z,26.20
2018-09-15T00:59:02.012Z,26.90
2018-09-15T01:01:34.230Z,28.60
2018-09-15T01:04:05.097Z,30.27
2018-09-15T01:06:37.930Z,27.70
2018-09-15T01:09:09.942Z,33.33
2018-09-15T01:11:48.132Z,33.70
2018-09-15T01:14:27.560Z,37.60
2018-09-15T01:17:01.160Z,37.50
2018-09-15T01:19:40.009Z,33.83
2018-09-15T01:22:17.232Z,37.67
2018-09-15T01:24:48.211Z,33.33
2018-09-15T01:27:20.744Z,39.00
2018-09-15T01:29:53.224Z,29.03
2018-09-15T01:32:26.348Z,32.90
2018-09-15T01:35:06.851Z,32.40
2018-09-15T01:37:41.735Z,36.87
2018-09-15T01:40:14.551Z,34.00
2018-09-15T01:42:48.126Z,37.83
2018-09-15T01:45:21.260Z,35.50
2018-09-15T01:47:55.108Z,37.07
2018-09-15T01:50:27.588Z,36.37
2018-09-15T01:53:03.584Z,38.70
2018-09-15T01:55:37.050Z,36.40
2018-09-15T01:58:08.664Z,30.13
2018-09-15T02:00:40.095Z,35.53
2018-09-15T02:03:15.352Z,32.53
2018-09-15T02:05:47.529Z,40.03
2018-09-15T02:08:20.018Z,37.40
2018-09-15T02:10:51.971Z,42.33
2018-09-15T02:13:24.269Z,38.23
2018-09-15T02:16:04.872Z,31.10
2018-09-15T02:18:36.909Z,29.83
2018-09-15T02:21:07.589Z,33.30
2018-09-15T02:23:45.961Z,34.80
2018-09-15T02:26:18.782Z,30.80
2018-09-15T02:28:48.842Z,37.53
2018-09-15T02:31:23.479Z,40.30
2018-09-15T02:33:57.905Z,32.80
2018-09-15T02:36:29.958Z,33.73
2018-09-15T02:39:04.787Z,41.37
2018-09-15T02:41:39.400Z,34.17
2018-09-15T02:44:13.015Z,35.87
2018-09-15T02:46:45.143Z,33.07
2018-09-15T02:49:20.678Z,35.80
2018-09-15T02:51:54.282Z,49.63
2018-09-15T02:54:25.595Z,43.60
2018-09-15T02:56:55.920Z,36.00
2018-09-15T02:59:34.295Z,39.17
2018-09-15T03:02:07.005Z,39.63
2018-09-15T03:04:36.404Z,38.53
2018-09-15T03:07:08.832Z,41.20
2018-09-15T03:09:47.761Z,42.17
2018-09-15T03:12:18.009Z,36.17
2018-09-15T03:14:50.379Z,39.13
2018-09-15T03:17:23.277Z,39.67
2018-09-15T03:19:58.911Z,35.70
2018-09-15T03:22:43.418Z,39.53
2018-09-15T03:25:17.417Z,44.00
2018-09-15T03:27:48.414Z,39.53
2018-09-15T03:30:22.700Z,39.97
2018-09-15T03:32:56.618Z,41.17
2018-09-15T03:35:30.620Z,35.33
2018-09-15T03:38:02.322Z,42.20
2018-09-15T03:40:42.726Z,37.73
2018-09-15T03:43:16.227Z,39.40
2018-09-15T03:45:46.333Z,46.23
2018-09-15T03:48:20.396Z,38.07
2018-09-15T03:50:59.329Z,38.77
2018-09-15T03:53:31.734Z,34.43
2018-09-15T03:56:08.958Z,43.87
2018-09-15T03:58:39.133Z,39.17
2018-09-15T04:01:10.028Z,38.30
2018-09-15T04:03:40.147Z,42.57
2018-09-15T04:06:13.946Z,36.57
2018-09-15T04:08:45.334Z,43.00
2018-09-15T04:11:15.494Z,42.50
2018-09-15T04:13:45.505Z,44.43
2018-09-15T04:16:14.113Z,47.50
2018-09-15T04:18:42.653Z,54.00
2018-09-15T04:21:17.404Z,54.23
2018-09-15T04:23:47.689Z,51.03
2018-09-15T04:26:16.507Z,50.73
2018-09-15T04:28:45.071Z,59.50
2018-09-15T04:31:16.656Z,55.47
2018-09-15T04:33:45.816Z,63.23
2018-09-15T04:36:16.594Z,54.20
2018-09-15T04:38:46.973Z,57.70
2018-09-15T04:41:17.576Z,65.50
2018-09-15T04:43:48.831Z,59.07
2018-09-15T04:46:18.268Z,54.73
2018-09-15T04:48:46.956Z,54.30
2018-09-15T04:51:15.181Z,51.70
2018-09-15T04:53:46.566Z,45.50
2018-09-15T04:56:15.115Z,45.93
2018-09-15T04:58:46.972Z,49.37
2018-09-15T05:01:16.284Z,66.60
2018-09-15T05:03:44.385Z,56.97
2018-09-15T05:06:13.343Z,41.00
2018-09-15T05:08:42.481Z,43.73
2018-09-15T05:11:12.504Z,38.73
2018-09-15T05:13:42.017Z,47.07
2018-09-15T05:16:11.589Z,31.53
2018-09-15T05:18:39.597Z,37.73
2018-09-15T05:21:07.424Z,36.97
2018-09-15T05:23:36.111Z,36.33
2018-09-15T05:26:04.695Z,34.50
2018-09-15T05:28:33.221Z,28.60
2018-09-15T05:31:01.818Z,35.90
2018-09-15T05:33:30.721Z,33.43
2018-09-15T05:36:01.990Z,24.90
2018-09-15T05:38:30.057Z,28.73
2018-09-15T05:40:59.189Z,25.80
2018-09-15T05:43:28.671Z,24.23
2018-09-15T05:45:57.505Z,20.40
2018-09-15T05:48:25.429Z,21.43
2018-09-15T05:50:53.904Z,18.23
2018-09-15T05:53:22.746Z,17.80
2018-09-15T05:55:51.320Z,20.07
2018-09-15T05:58:20.836Z,16.00
2018-09-15T06:00:51.283Z,24.50
2018-09-15T06:03:19.716Z,21.77
2018-09-15T06:05:49.494Z,21.27
2018-09-15T06:08:17.616Z,24.30
2018-09-15T06:10:45.899Z,18.40
2018-09-15T06:13:15.090Z,18.07
2018-09-15T06:15:45.447Z,17.77
2018-09-15T06:18:16.408Z,21.17
2018-09-15T06:20:45.229Z,20.70
2018-09-15T06:23:14.160Z,19.83
2018-09-15T06:25:42.436Z,22.30
2018-09-15T06:28:12.359Z,17.57
2018-09-15T06:30:44.275Z,20.73
2018-09-15T06:33:12.205Z,17.33
2018-09-15T06:35:42.972Z,16.97
2018-09-15T06:38:12.016Z,18.20
2018-09-15T06:40:41.557Z,17.27
2018-09-15T06:43:10.552Z,18.40
2018-09-15T06:45:38.530Z,17.67
2018-09-15T06:48:08.812Z,17.63
2018-09-15T06:50:39.842Z,19.67
2018-09-15T06:53:09.747Z,20.07
2018-09-15T06:55:40.743Z,19.77
2018-09-15T06:58:10.395Z,21.97
2018-09-15T07:00:41.786Z,21.10
2018-09-15T07:03:10.792Z,19.83
2018-09-15T07:05:42.330Z,14.93
2018-09-15T07:08:13.356Z,17.50
2018-09-15T07:10:43.841Z,21.73
2018-09-15T07:13:12.657Z,17.00
2018-09-15T07:15:41.629Z,15.50
2018-09-15T07:18:10.707Z,18.20
2018-09-15T07:20:40.919Z,17.57
2018-09-15T07:23:10.679Z,16.57
2018-09-15T07:25:38.753Z,16.80
2018-09-15T07:28:06.884Z,22.17
2018-09-15T07:30:34.757Z,15.80
2018-09-15T07:33:02.736Z,18.70
2018-09-15T07:35:31.548Z,20.33
2018-09-15T07:37:59.757Z,19.73
2018-09-15T07:40:28.993Z,19.10
2018-09-15T07:42:57.887Z,21.23
2018-09-15T07:45:25.717Z,18.47
2018-09-15T07:47:53.554Z,15.20
2018-09-15T07:50:22.088Z,16.87
2018-09-15T07:52:50.901Z,17.67
2018-09-15T07:55:19.398Z,14.73
2018-09-15T07:57:47.370Z,16.80
2018-09-15T08:00:15.627Z,14.60
2018-09-15T08:02:43.474Z,14.53
2018-09-15T08:05:11.322Z,16.57
2018-09-15T08:07:39.905Z,12.77
2018-09-15T08:10:07.812Z,13.57
2018-09-15T08:12:35.709Z,11.63
2018-09-15T08:15:03.702Z,16.50
2018-09-15T08:17:31.631Z,13.93
2018-09-15T08:19:59.507Z,12.87
2018-09-15T08:22:29.527Z,11.77
2018-09-15T08:24:57.419Z,16.17
2018-09-15T08:27:25.359Z,18.10
2018-09-15T08:29:53.202Z,15.23
2018-09-15T08:32:21.064Z,20.60
2018-09-15T08:34:48.914Z,14.90
2018-09-15T08:37:18.219Z,14.37
2018-09-15T08:39:46.069Z,13.23
2018-09-15T08:42:14.803Z,15.60
2018-09-15T08:44:42.928Z,15.37
2018-09-15T08:47:10.783Z,14.90
2018-09-15T08:49:38.638Z,13.40
2018-09-15T08:52:07.457Z,13.87
2018-09-15T08:54:35.456Z,13.67
2018-09-15T08:57:03.665Z,15.03
2018-09-15T08:59:31.512Z,17.07
2018-09-15T09:01:59.540Z,15.87
2018-09-15T09:04:27.417Z,25.23
2018-09-15T09:06:55.278Z,15.37
2018-09-15T09:09:23.143Z,32.93
2018-09-15T09:11:51.006Z,17.23
2018-09-15T09:14:18.892Z,17.00
2018-09-15T09:16:46.789Z,16.27
2018-09-15T09:19:14.721Z,14.33
2018-09-15T09:21:43.284Z,28.40
2018-09-15T09:24:11.207Z,19.57
2018-09-15T09:26:39.900Z,27.63
2018-09-15T09:29:07.752Z,25.80
2018-09-15T09:31:36.089Z,21.83
2018-09-15T09:34:03.981Z,23.13
2018-09-15T09:36:31.880Z,32.50
2018-09-15T09:38:59.788Z,33.43
2018-09-15T09:41:27.743Z,26.10
2018-09-15T09:43:55.549Z,31.43
2018-09-15T09:46:23.392Z,65.03
2018-09-15T09:48:51.334Z,26.93
2018-09-15T09:53:42.788Z,30.70
2018-09-15T09:56:10.658Z,27.50
2018-09-15T09:58:38.558Z,26.43
2018-09-15T10:01:12.188Z,34.40
2018-09-15T10:03:40.072Z,26.40
2018-09-15T10:06:07.959Z,44.00
2018-09-15T10:08:35.932Z,28.60
2018-09-15T10:11:03.803Z,41.57
2018-09-15T10:13:31.688Z,20.23
2018-09-15T10:15:59.575Z,18.13
2018-09-15T10:18:28.156Z,18.47
2018-09-15T10:20:56.088Z,14.63
2018-09-15T10:23:23.978Z,16.53
2018-09-15T10:25:51.810Z,18.50
2018-09-15T10:28:20.005Z,18.47
2018-09-15T10:30:47.889Z,17.77
2018-09-15T10:33:16.039Z,15.80
2018-09-15T10:35:43.897Z,16.43
2018-09-15T10:38:11.829Z,20.80
2018-09-15T10:40:39.697Z,22.70
2018-09-15T10:43:07.702Z,19.80
2018-09-15T10:45:35.583Z,20.53
2018-09-15T10:48:03.491Z,21.90
2018-09-15T10:50:31.995Z,22.37
2018-09-15T10:52:59.972Z,19.70
2018-09-15T10:55:27.901Z,18.30
2018-09-15T10:57:56.522Z,19.70
2018-09-15T11:00:24.401Z,25.67
2018-09-15T11:02:52.238Z,26.80
2018-09-15T11:05:20.097Z,19.20
2018-09-15T11:07:47.950Z,23.63
2018-09-15T11:10:15.842Z,22.53
2018-09-15T11:12:43.758Z,18.37
2018-09-15T11:15:11.682Z,20.73
2018-09-15T11:17:39.676Z,18.83
2018-09-15T11:20:08.270Z,20.90
2018-09-15T11:22:36.725Z,21.80
2018-09-15T11:25:04.668Z,25.03
2018-09-15T11:27:32.525Z,22.60
2018-09-15T11:30:01.128Z,19.40
2018-09-15T11:32:30.004Z,31.23
2018-09-15T11:34:58.323Z,25.43
2018-09-15T11:37:26.228Z,25.30
2018-09-15T11:39:54.776Z,27.10
2018-09-15T11:42:24.235Z,23.03
2018-09-15T11:44:52.989Z,22.00
2018-09-15T11:47:21.987Z,21.77
2018-09-15T11:49:50.989Z,23.70
2018-09-15T11:52:18.839Z,25.30
2018-09-15T11:54:46.757Z,23.73
2018-09-15T11:57:15.700Z,27.17
2018-09-15T11:59:44.389Z,25.70
2018-09-15T12:02:12.556Z,22.40
2018-09-15T12:04:40.423Z,24.33
2018-09-15T12:07:09.174Z,28.90
2018-09-15T12:09:37.381Z,23.73
2018-09-15T12:12:05.281Z,33.63
2018-09-15T12:14:33.146Z,23.63
2018-09-15T12:17:01.043Z,24.00
2018-09-15T12:19:29.171Z,24.53
2018-09-15T12:21:57.034Z,29.37
2018-09-15T12:24:25.230Z,34.63
2018-09-15T12:26:53.063Z,29.20
2018-09-15T12:29:20.963Z,29.60
2018-09-15T12:31:48.833Z,26.27
2018-09-15T12:34:17.483Z,27.97
2018-09-15T12:36:46.284Z,23.23
2018-09-15T12:39:14.980Z,26.13
2018-09-15T12:41:43.802Z,27.03
2018-09-15T12:44:11.690Z,24.43
2018-09-15T12:46:39.704Z,24.70
2018-09-15T12:49:07.576Z,25.27
2018-09-15T12:51:35.539Z,25.47
2018-09-15T12:54:03.415Z,22.13
2018-09-15T12:56:32.038Z,25.27
2018-09-15T12:58:59.888Z,19.60
2018-09-15T13:01:27.769Z,19.73
2018-09-15T13:03:55.600Z,19.60
2018-09-15T13:06:24.396Z,16.70
2018-09-15T13:08:52.282Z,14.63
2018-09-15T13:11:21.442Z,16.27
2018-09-15T13:13:49.281Z,16.10
2018-09-15T13:16:17.703Z,15.87
2018-09-15T13:18:45.589Z,12.30
2018-09-15T13:21:13.748Z,12.37
2018-09-15T13:23:42.415Z,15.30
2018-09-15T13:26:10.246Z,13.80
2018-09-15T13:28:39.289Z,14.50
2018-09-15T13:31:07.159Z,11.63
2018-09-15T13:33:35.029Z,17.93
2018-09-15T13:36:02.911Z,14.23
2018-09-15T13:38:30.890Z,14.30
2018-09-15T13:40:58.752Z,12.57
2018-09-15T13:43:26.615Z,14.53
2018-09-15T13:45:55.223Z,16.00
2018-09-15T13:48:23.120Z,13.27
2018-09-15T13:50:52.109Z,10.87
2018-09-15T13:53:20.029Z,11.37
2018-09-15T13:55:47.917Z,15.00
2018-09-15T13:58:15.853Z,13.70
2018-09-15T14:00:43.829Z,19.80
2018-09-15T14:03:11.721Z,12.23
2018-09-15T14:05:39.623Z,12.37
2018-09-15T14:08:08.335Z,12.00
2018-09-15T14:10:36.559Z,14.67
2018-09-15T14:13:04.803Z,13.50
2018-09-15T14:15:32.643Z,16.73
2018-09-15T14:18:00.481Z,12.83
2018-09-15T14:20:28.344Z,19.33
2018-09-15T14:22:56.209Z,16.40
2018-09-15T14:25:24.082Z,22.43
2018-09-15T14:27:52.045Z,13.77
2018-09-15T14:30:19.961Z,29.80
2018-09-15T14:32:47.842Z,11.00
2018-09-15T14:35:15.692Z,31.83
2018-09-15T14:37:43.563Z,17.93
2018-09-15T14:40:11.922Z,10.03
2018-09-15T14:42:39.951Z,15.70
2018-09-15T14:45:07.829Z,16.60
2018-09-15T14:47:35.646Z,14.27
2018-09-15T14:50:03.613Z,13.67
2018-09-15T14:52:31.990Z,10.90
2018-09-15T14:55:00.405Z,14.57
2018-09-15T14:57:28.248Z,10.50
2018-09-15T14:59:56.187Z,13.07
2018-09-15T15:02:24.105Z,12.40
2018-09-15T15:04:52.005Z,11.30
2018-09-15T15:07:19.918Z,10.53
2018-09-15T15:09:47.748Z,11.93
2018-09-15T15:12:15.611Z,13.40
2018-09-15T15:14:43.440Z,12.87
2018-09-15T15:17:12.244Z,19.40
2018-09-15T15:19:40.181Z,49.90
2018-09-15T15:22:08.628Z,16.73
2018-09-15T15:24:36.592Z,13.07
2018-09-15T15:27:05.568Z,15.37
2018-09-15T15:29:34.190Z,17.03
2018-09-15T15:32:02.062Z,11.73
2018-09-15T15:34:30.015Z,36.30
2018-09-15T15:36:57.870Z,23.80
2018-09-15T15:39:25.734Z,15.23
2018-09-15T15:41:53.696Z,12.90
2018-09-15T15:44:21.447Z,25.53
2018-09-15T15:46:49.560Z,19.23
2018-09-15T15:49:17.445Z,13.77
2018-09-15T15:51:45.340Z,10.77
2018-09-15T15:54:13.246Z,12.40
2018-09-15T15:56:41.390Z,10.87
2018-09-15T15:59:09.305Z,10.80
2018-09-15T16:01:37.752Z,13.80
2018-09-15T16:04:05.695Z,11.43
2018-09-15T16:06:34.022Z,12.83
2018-09-15T16:09:01.913Z,14.33
2018-09-15T16:11:30.177Z,12.13
2018-09-15T16:13:58.044Z,12.23
2018-09-15T16:16:25.900Z,12.43
2018-09-15T16:18:53.767Z,19.17
2018-09-15T16:21:21.616Z,15.20
2018-09-15T16:23:50.326Z,16.13
2018-09-15T16:26:19.019Z,21.73
2018-09-15T16:28:46.882Z,16.37
2018-09-15T16:31:14.766Z,11.23
2018-09-15T16:33:42.600Z,17.60
2018-09-15T16:36:10.458Z,17.57
2018-09-15T16:38:38.384Z,27.93
2018-09-15T16:41:06.513Z,25.90
2018-09-15T16:43:34.413Z,26.63
2018-09-15T16:46:02.663Z,25.10
2018-09-15T16:48:30.565Z,87.73
2018-09-15T16:50:58.378Z,165.93
2018-09-15T16:53:27.045Z,96.63
2018-09-15T16:55:54.883Z,81.33
2018-09-15T16:58:23.004Z,23.87
2018-09-15T17:00:51.064Z,15.50
2018-09-15T17:03:19.092Z,12.63
2018-09-15T17:05:46.925Z,13.87
2018-09-15T17:08:14.859Z,12.20
2018-09-15T17:10:42.957Z,18.73
2018-09-15T17:13:10.791Z,15.27
2018-09-15T17:15:38.664Z,18.60
2018-09-15T17:18:06.540Z,17.83
2018-09-15T17:20:35.263Z,16.67
2018-09-15T17:23:03.306Z,17.50
2018-09-15T17:25:31.188Z,14.63
2018-09-15T17:27:59.100Z,18.73
2018-09-15T17:30:27.028Z,15.70
2018-09-15T17:32:54.897Z,16.73
2018-09-15T17:35:22.741Z,16.90
2018-09-15T17:37:50.967Z,13.57
2018-09-15T17:40:19.813Z,16.40
2018-09-15T17:42:48.758Z,15.87
2018-09-15T17:45:17.463Z,18.90
2018-09-15T17:47:45.280Z,19.00
2018-09-15T17:50:13.195Z,18.73
2018-09-15T17:52:41.707Z,17.03
2018-09-15T17:55:09.925Z,20.27
2018-09-15T17:57:37.836Z,22.60
2018-09-15T18:00:06.458Z,20.13
2018-09-15T18:02:35.695Z,28.80
2018-09-15T18:05:03.725Z,19.20
2018-09-15T18:07:31.603Z,17.60
2018-09-15T18:10:00.397Z,20.07
2018-09-15T18:12:28.544Z,21.40
2018-09-15T18:14:57.222Z,22.67
2018-09-15T18:17:25.402Z,23.73
2018-09-15T18:19:53.341Z,29.00
2018-09-15T18:22:21.727Z,26.00
2018-09-15T18:24:49.576Z,19.27
2018-09-15T18:27:17.454Z,16.13
2018-09-15T18:29:45.311Z,29.80
2018-09-15T18:32:13.737Z,19.50
2018-09-15T18:34:42.728Z,18.27
2018-09-15T18:37:11.746Z,20.57
2018-09-15T18:39:39.936Z,18.83
2018-09-15T18:42:07.784Z,22.33
2018-09-15T18:44:35.670Z,24.63
2018-09-15T18:47:03.620Z,31.00
2018-09-15T18:49:32.150Z,23.87
2018-09-15T18:52:00.372Z,53.53
2018-09-15T18:54:28.327Z,20.63
2018-09-15T18:56:56.385Z,18.87
2018-09-15T18:59:25.203Z,19.77
2018-09-15T19:01:53.903Z,18.87
2018-09-15T19:04:22.359Z,18.17
2018-09-15T19:06:52.910Z,19.80
2018-09-15T19:09:21.014Z,16.07
2018-09-15T19:11:49.541Z,19.50
2018-09-15T19:14:17.529Z,18.63
2018-09-15T19:16:45.941Z,19.17
2018-09-15T19:19:14.576Z,18.73
2018-09-15T19:21:43.323Z,20.60
2018-09-15T19:24:11.301Z,18.33
2018-09-15T19:26:40.742Z,19.57
2018-09-15T19:29:08.690Z,23.43
2018-09-15T19:31:36.589Z,22.90
2018-09-15T19:34:04.526Z,17.03
2018-09-15T19:36:32.462Z,17.17
2018-09-15T19:39:00.371Z,22.20
2018-09-15T19:41:28.266Z,16.53
2018-09-15T19:43:56.775Z,20.87
2018-09-15T19:46:24.616Z,19.27
2018-09-15T19:48:52.480Z,20.07
2018-09-15T19:51:20.309Z,20.03
2018-09-15T19:53:48.180Z,19.40
2018-09-15T19:56:16.069Z,18.83
2018-09-15T19:58:43.922Z,12.90
2018-09-15T20:01:12.472Z,18.10
2018-09-15T20:03:40.337Z,16.97
2018-09-15T20:06:08.262Z,16.87
2018-09-15T20:08:36.083Z,18.33
2018-09-15T20:11:03.973Z,17.53
2018-09-15T20:13:31.876Z,14.87
2018-09-15T20:15:58.642Z,15.13
2018-09-15T20:18:25.361Z,16.10
2018-09-15T20:20:52.089Z,17.83
2018-09-15T20:23:19.937Z,13.90
2018-09-15T20:25:47.878Z,18.53
2018-09-15T20:28:16.163Z,14.97
2018-09-15T20:30:44.044Z,17.63
2018-09-15T20:33:12.311Z,15.50
2018-09-15T20:35:40.190Z,18.33
2018-09-15T20:38:09.010Z,13.70
2018-09-15T20:40:36.916Z,18.37
2018-09-15T20:43:05.138Z,12.80
2018-09-15T20:45:32.996Z,17.43
2018-09-15T20:48:00.849Z,15.87
2018-09-15T20:50:28.686Z,16.23
2018-09-15T20:52:56.508Z,17.37
2018-09-15T20:55:24.358Z,12.70
2018-09-15T20:57:52.177Z,17.70
2018-09-15T21:00:20.052Z,17.37
2018-09-15T21:02:47.960Z,18.80
2018-09-15T21:05:15.832Z,14.30
2018-09-15T21:07:43.711Z,46.13
2018-09-15T21:10:11.561Z,22.40
2018-09-15T21:12:39.389Z,28.50
2018-09-15T21:15:07.371Z,25.33
2018-09-15T21:17:35.193Z,36.40
2018-09-15T21:20:03.148Z,19.20
2018-09-15T21:22:31.007Z,16.50
2018-09-15T21:24:58.862Z,16.50
2018-09-15T21:27:26.692Z,19.60
2018-09-15T21:29:54.534Z,18.30
2018-09-15T21:32:22.398Z,32.33
2018-09-15T21:34:50.527Z,25.90
2018-09-15T21:37:18.427Z,24.83
2018-09-15T21:39:46.241Z,31.87
2018-09-15T21:42:14.085Z,14.27
2018-09-15T21:44:41.962Z,17.67
2018-09-15T21:47:09.847Z,15.40
2018-09-15T21:49:37.708Z,13.83
2018-09-15T21:52:05.936Z,12.50
2018-09-15T21:54:33.829Z,14.00
2018-09-15T21:57:01.699Z,16.63
2018-09-15T21:59:29.562Z,15.60
2018-09-15T22:01:57.389Z,17.60
2018-09-15T22:04:25.200Z,19.70
2018-09-15T22:06:53.645Z,15.53
2018-09-15T22:09:21.851Z,15.97
2018-09-15T22:11:50.011Z,14.97
2018-09-15T22:14:17.854Z,15.10
2018-09-15T22:16:45.712Z,16.00
2018-09-15T22:19:14.687Z,18.30
2018-09-15T22:21:43.416Z,17.40
2018-09-15T22:24:11.325Z,13.30
2018-09-15T22:26:40.145Z,18.10
2018-09-15T22:29:07.997Z,20.73
2018-09-15T22:31:35.863Z,15.67
2018-09-15T22:34:03.849Z,18.13
2018-09-15T22:36:31.742Z,19.20
2018-09-15T22:38:59.566Z,15.83
2018-09-15T22:41:28.187Z,12.97
2018-09-15T22:43:56.045Z,16.53
2018-09-15T22:46:23.867Z,14.00
2018-09-15T22:48:51.671Z,9.37
2018-09-15T22:51:19.530Z,11.40
2018-09-15T22:53:47.336Z,10.27
2018-09-15T22:56:15.209Z,8.10
2018-09-15T22:58:43.045Z,13.77
2018-09-15T23:01:10.871Z,13.03
2018-09-15T23:03:38.713Z,12.00
2018-09-15T23:06:07.432Z,12.60
2018-09-15T23:08:35.301Z,17.30
2018-09-15T23:11:03.160Z,19.50
2018-09-15T23:13:30.996Z,15.10
2018-09-15T23:15:58.864Z,25.87
2018-09-15T23:18:26.677Z,15.60
2018-09-15T23:20:55.032Z,16.80
2018-09-15T23:23:23.585Z,16.00
2018-09-15T23:25:51.401Z,20.67
2018-09-15T23:28:19.220Z,20.67
2018-09-15T23:30:47.595Z,21.57
2018-09-15T23:33:16.091Z,26.23
2018-09-15T23:35:43.916Z,16.70
2018-09-15T23:38:11.751Z,18.33
2018-09-15T23:40:39.590Z,17.33
2018-09-15T23:43:07.461Z,18.10
2018-09-15T23:45:35.338Z,17.37
2018-09-15T23:48:03.188Z,17.60
2018-09-15T23:50:31.009Z,20.00
2018-09-15T23:52:58.806Z,14.37
2018-09-15T23:55:26.595Z,14.97
2018-09-15T23:57:54.429Z,24.80
